sensor_id;sensor_type;location;lat;lon;timestamp;P1;durP1;ratioP1;P2;durP2;ratioP2
56457;SDS011;42360;42.918;12.366;2023-08-20T00:00:17;5.10;;;3.65;;
56457;SDS011;42360;42.918;12.366;2023-08-20T00:02:44;4.15;;;3.83;;
56457;SDS011;42360;42.918;12.366;2023-08-20T00:05:11;4.18;;;3.75;;
56457;SDS011;42360;42.918;12.366;2023-08-20T00:07:37;4.57;;;4.18;;
56457;SDS011;42360;42.918;12.366;2023-08-20T00:10:03;6.55;;;3.63;;
56457;SDS011;42360;42.918;12.366;2023-08-20T00:12:29;5.40;;;4.00;;
56457;SDS011;42360;42.918;12.366;2023-08-20T00:14:56;4.20;;;3.90;;
56457;SDS011;42360;42.918;12.366;2023-08-20T00:17:33;6.53;;;3.80;;
56457;SDS011;42360;42.918;12.366;2023-08-20T00:19:59;4.07;;;3.67;;
56457;SDS011;42360;42.918;12.366;2023-08-20T00:22:25;6.70;;;3.85;;
56457;SDS011;42360;42.918;12.366;2023-08-20T00:24:54;4.45;;;3.90;;
56457;SDS011;42360;42.918;12.366;2023-08-20T00:27:20;4.88;;;3.97;;
56457;SDS011;42360;42.918;12.366;2023-08-20T00:29:46;5.45;;;4.32;;
56457;SDS011;42360;42.918;12.366;2023-08-20T00:32:14;5.25;;;4.10;;
56457;SDS011;42360;42.918;12.366;2023-08-20T00:34:40;4.55;;;4.15;;
56457;SDS011;42360;42.918;12.366;2023-08-20T00:37:05;4.35;;;3.90;;
56457;SDS011;42360;42.918;12.366;2023-08-20T00:39:31;4.78;;;3.90;;
56457;SDS011;42360;42.918;12.366;2023-08-20T00:41:57;4.13;;;3.72;;
56457;SDS011;42360;42.918;12.366;2023-08-20T00:44:23;4.47;;;4.07;;
56457;SDS011;42360;42.918;12.366;2023-08-20T00:46:48;4.97;;;3.90;;
56457;SDS011;42360;42.918;12.366;2023-08-20T00:49:14;6.25;;;4.40;;
56457;SDS011;42360;42.918;12.366;2023-08-20T00:51:39;4.28;;;3.88;;
56457;SDS011;42360;42.918;12.366;2023-08-20T00:54:05;4.38;;;3.97;;
56457;SDS011;42360;42.918;12.366;2023-08-20T00:56:30;4.63;;;3.88;;
56457;SDS011;42360;42.918;12.366;2023-08-20T00:58:56;4.22;;;3.83;;
56457;SDS011;42360;42.918;12.366;2023-08-20T01:01:22;5.32;;;3.80;;
56457;SDS011;42360;42.918;12.366;2023-08-20T01:03:48;6.10;;;3.85;;
56457;SDS011;42360;42.918;12.366;2023-08-20T01:11:44;4.32;;;3.78;;
56457;SDS011;42360;42.918;12.366;2023-08-20T01:14:15;4.75;;;3.78;;
56457;SDS011;42360;42.918;12.366;2023-08-20T01:16:41;4.30;;;3.90;;
56457;SDS011;42360;42.918;12.366;2023-08-20T01:19:07;4.88;;;4.38;;
56457;SDS011;42360;42.918;12.366;2023-08-20T01:21:39;6.55;;;3.85;;
56457;SDS011;42360;42.918;12.366;2023-08-20T01:29:58;5.43;;;3.72;;
56457;SDS011;42360;42.918;12.366;2023-08-20T01:32:24;4.47;;;4.00;;
56457;SDS011;42360;42.918;12.366;2023-08-20T01:34:51;4.15;;;3.70;;
56457;SDS011;42360;42.918;12.366;2023-08-20T01:37:17;5.43;;;3.85;;
56457;SDS011;42360;42.918;12.366;2023-08-20T01:39:43;3.70;;;3.40;;
56457;SDS011;42360;42.918;12.366;2023-08-20T01:42:08;4.28;;;3.88;;
56457;SDS011;42360;42.918;12.366;2023-08-20T01:44:34;3.70;;;3.35;;
56457;SDS011;42360;42.918;12.366;2023-08-20T01:46:59;3.92;;;3.42;;
56457;SDS011;42360;42.918;12.366;2023-08-20T01:49:25;4.07;;;3.65;;
56457;SDS011;42360;42.918;12.366;2023-08-20T01:51:50;4.10;;;3.78;;
56457;SDS011;42360;42.918;12.366;2023-08-20T01:54:16;3.95;;;3.55;;
56457;SDS011;42360;42.918;12.366;2023-08-20T01:56:42;4.43;;;4.03;;
56457;SDS011;42360;42.918;12.366;2023-08-20T01:59:07;3.95;;;3.65;;
56457;SDS011;42360;42.918;12.366;2023-08-20T02:01:33;4.55;;;3.83;;
56457;SDS011;42360;42.918;12.366;2023-08-20T02:03:58;4.78;;;3.97;;
56457;SDS011;42360;42.918;12.366;2023-08-20T02:06:24;4.50;;;4.10;;
56457;SDS011;42360;42.918;12.366;2023-08-20T02:08:49;4.05;;;3.72;;
56457;SDS011;42360;42.918;12.366;2023-08-20T02:11:15;4.13;;;3.75;;
56457;SDS011;42360;42.918;12.366;2023-08-20T02:13:40;4.05;;;3.72;;
56457;SDS011;42360;42.918;12.366;2023-08-20T02:16:06;4.65;;;3.83;;
56457;SDS011;42360;42.918;12.366;2023-08-20T02:18:32;4.07;;;3.75;;
56457;SDS011;42360;42.918;12.366;2023-08-20T02:20:57;4.70;;;3.95;;
56457;SDS011;42360;42.918;12.366;2023-08-20T02:23:23;5.30;;;3.58;;
56457;SDS011;42360;42.918;12.366;2023-08-20T02:25:49;4.20;;;3.80;;
56457;SDS011;42360;42.918;12.366;2023-08-20T02:28:14;4.45;;;4.05;;
56457;SDS011;42360;42.918;12.366;2023-08-20T02:30:44;5.13;;;3.60;;
56457;SDS011;42360;42.918;12.366;2023-08-20T02:33:10;4.72;;;3.95;;
56457;SDS011;42360;42.918;12.366;2023-08-20T02:35:39;4.10;;;3.80;;
56457;SDS011;42360;42.918;12.366;2023-08-20T02:38:05;4.20;;;3.50;;
56457;SDS011;42360;42.918;12.366;2023-08-20T02:40:31;4.22;;;3.83;;
56457;SDS011;42360;42.918;12.366;2023-08-20T02:42:57;5.05;;;3.95;;
56457;SDS011;42360;42.918;12.366;2023-08-20T02:45:23;6.10;;;3.67;;
56457;SDS011;42360;42.918;12.366;2023-08-20T02:47:49;4.30;;;3.90;;
56457;SDS011;42360;42.918;12.366;2023-08-20T02:50:14;4.05;;;3.63;;
56457;SDS011;42360;42.918;12.366;2023-08-20T02:52:41;5.43;;;4.47;;
56457;SDS011;42360;42.918;12.366;2023-08-20T02:55:07;5.10;;;4.57;;
56457;SDS011;42360;42.918;12.366;2023-08-20T02:57:33;3.80;;;3.50;;
56457;SDS011;42360;42.918;12.366;2023-08-20T02:59:59;4.30;;;3.90;;
56457;SDS011;42360;42.918;12.366;2023-08-20T03:02:24;3.80;;;3.50;;
56457;SDS011;42360;42.918;12.366;2023-08-20T03:04:49;4.30;;;3.72;;
56457;SDS011;42360;42.918;12.366;2023-08-20T03:07:15;4.32;;;3.92;;
56457;SDS011;42360;42.918;12.366;2023-08-20T03:09:40;4.05;;;3.75;;
56457;SDS011;42360;42.918;12.366;2023-08-20T03:12:06;6.32;;;3.78;;
56457;SDS011;42360;42.918;12.366;2023-08-20T03:14:32;4.72;;;4.18;;
56457;SDS011;42360;42.918;12.366;2023-08-20T03:16:57;4.80;;;3.70;;
56457;SDS011;42360;42.918;12.366;2023-08-20T03:19:23;4.38;;;3.97;;
56457;SDS011;42360;42.918;12.366;2023-08-20T03:21:48;4.72;;;3.75;;
56457;SDS011;42360;42.918;12.366;2023-08-20T03:24:14;4.93;;;4.50;;
56457;SDS011;42360;42.918;12.366;2023-08-20T03:26:39;4.47;;;3.80;;
56457;SDS011;42360;42.918;12.366;2023-08-20T03:29:05;4.95;;;3.72;;
56457;SDS011;42360;42.918;12.366;2023-08-20T03:31:31;4.38;;;3.95;;
56457;SDS011;42360;42.918;12.366;2023-08-20T03:33:56;4.20;;;3.80;;
56457;SDS011;42360;42.918;12.366;2023-08-20T03:36:22;4.40;;;3.58;;
56457;SDS011;42360;42.918;12.366;2023-08-20T03:38:47;4.95;;;3.72;;
56457;SDS011;42360;42.918;12.366;2023-08-20T03:41:13;4.60;;;3.63;;
56457;SDS011;42360;42.918;12.366;2023-08-20T03:43:39;5.90;;;4.03;;
56457;SDS011;42360;42.918;12.366;2023-08-20T03:46:04;7.13;;;5.53;;
56457;SDS011;42360;42.918;12.366;2023-08-20T03:48:30;5.72;;;4.72;;
56457;SDS011;42360;42.918;12.366;2023-08-20T03:50:55;6.57;;;5.20;;
56457;SDS011;42360;42.918;12.366;2023-08-20T03:53:21;6.95;;;5.68;;
56457;SDS011;42360;42.918;12.366;2023-08-20T03:55:47;6.47;;;5.70;;
56457;SDS011;42360;42.918;12.366;2023-08-20T03:58:13;6.15;;;5.50;;
56457;SDS011;42360;42.918;12.366;2023-08-20T04:00:39;7.03;;;6.32;;
56457;SDS011;42360;42.918;12.366;2023-08-20T04:03:04;6.93;;;6.05;;
56457;SDS011;42360;42.918;12.366;2023-08-20T04:05:35;9.32;;;5.88;;
56457;SDS011;42360;42.918;12.366;2023-08-20T04:08:04;9.65;;;7.30;;
56457;SDS011;42360;42.918;12.366;2023-08-20T04:10:30;10.48;;;7.72;;
56457;SDS011;42360;42.918;12.366;2023-08-20T04:12:56;10.00;;;7.50;;
56457;SDS011;42360;42.918;12.366;2023-08-20T04:15:21;12.10;;;7.68;;
56457;SDS011;42360;42.918;12.366;2023-08-20T04:17:47;9.30;;;7.10;;
56457;SDS011;42360;42.918;12.366;2023-08-20T04:20:13;8.90;;;7.40;;
56457;SDS011;42360;42.918;12.366;2023-08-20T04:22:39;8.30;;;6.80;;
56457;SDS011;42360;42.918;12.366;2023-08-20T04:25:05;10.18;;;6.93;;
56457;SDS011;42360;42.918;12.366;2023-08-20T04:27:31;9.07;;;6.97;;
56457;SDS011;42360;42.918;12.366;2023-08-20T04:29:57;10.63;;;8.20;;
56457;SDS011;42360;42.918;12.366;2023-08-20T04:32:22;10.40;;;8.18;;
56457;SDS011;42360;42.918;12.366;2023-08-20T04:34:48;9.70;;;7.72;;
56457;SDS011;42360;42.918;12.366;2023-08-20T04:37:15;10.05;;;7.32;;
56457;SDS011;42360;42.918;12.366;2023-08-20T04:39:40;9.68;;;5.65;;
56457;SDS011;42360;42.918;12.366;2023-08-20T04:42:06;7.07;;;5.40;;
56457;SDS011;42360;42.918;12.366;2023-08-20T04:44:31;6.22;;;5.30;;
56457;SDS011;42360;42.918;12.366;2023-08-20T04:46:57;7.05;;;4.95;;
56457;SDS011;42360;42.918;12.366;2023-08-20T04:49:22;5.63;;;5.13;;
56457;SDS011;42360;42.918;12.366;2023-08-20T04:51:48;5.88;;;4.38;;
56457;SDS011;42360;42.918;12.366;2023-08-20T04:54:13;5.38;;;4.88;;
56457;SDS011;42360;42.918;12.366;2023-08-20T04:56:39;5.25;;;4.75;;
56457;SDS011;42360;42.918;12.366;2023-08-20T04:59:04;5.18;;;4.78;;
56457;SDS011;42360;42.918;12.366;2023-08-20T05:01:30;5.38;;;4.32;;
56457;SDS011;42360;42.918;12.366;2023-08-20T05:03:55;6.85;;;4.65;;
56457;SDS011;42360;42.918;12.366;2023-08-20T05:06:21;5.57;;;4.55;;
56457;SDS011;42360;42.918;12.366;2023-08-20T05:08:46;5.50;;;4.88;;
56457;SDS011;42360;42.918;12.366;2023-08-20T05:11:11;5.20;;;4.70;;
56457;SDS011;42360;42.918;12.366;2023-08-20T05:13:37;5.60;;;5.00;;
56457;SDS011;42360;42.918;12.366;2023-08-20T05:16:02;7.38;;;5.20;;
56457;SDS011;42360;42.918;12.366;2023-08-20T05:18:28;8.30;;;5.53;;
56457;SDS011;42360;42.918;12.366;2023-08-20T05:20:53;6.35;;;5.38;;
56457;SDS011;42360;42.918;12.366;2023-08-20T05:23:19;6.28;;;5.68;;
56457;SDS011;42360;42.918;12.366;2023-08-20T05:25:44;6.45;;;5.70;;
56457;SDS011;42360;42.918;12.366;2023-08-20T05:28:10;6.57;;;5.38;;
56457;SDS011;42360;42.918;12.366;2023-08-20T05:30:35;6.30;;;5.70;;
56457;SDS011;42360;42.918;12.366;2023-08-20T05:33:01;6.85;;;5.75;;
56457;SDS011;42360;42.918;12.366;2023-08-20T05:35:26;7.15;;;6.07;;
56457;SDS011;42360;42.918;12.366;2023-08-20T05:37:53;7.13;;;6.38;;
56457;SDS011;42360;42.918;12.366;2023-08-20T05:40:18;7.22;;;6.53;;
56457;SDS011;42360;42.918;12.366;2023-08-20T05:42:45;7.35;;;6.53;;
56457;SDS011;42360;42.918;12.366;2023-08-20T05:45:11;8.30;;;6.82;;
56457;SDS011;42360;42.918;12.366;2023-08-20T05:47:36;7.65;;;6.47;;
56457;SDS011;42360;42.918;12.366;2023-08-20T05:50:02;6.70;;;5.97;;
56457;SDS011;42360;42.918;12.366;2023-08-20T05:52:28;8.13;;;6.50;;
56457;SDS011;42360;42.918;12.366;2023-08-20T05:54:53;7.65;;;6.82;;
56457;SDS011;42360;42.918;12.366;2023-08-20T05:57:19;6.85;;;6.10;;
56457;SDS011;42360;42.918;12.366;2023-08-20T05:59:44;8.77;;;6.70;;
56457;SDS011;42360;42.918;12.366;2023-08-20T06:02:15;8.20;;;6.40;;
56457;SDS011;42360;42.918;12.366;2023-08-20T06:04:41;7.55;;;6.75;;
56457;SDS011;42360;42.918;12.366;2023-08-20T06:07:06;7.43;;;6.60;;
56457;SDS011;42360;42.918;12.366;2023-08-20T06:09:32;8.30;;;6.78;;
56457;SDS011;42360;42.918;12.366;2023-08-20T06:11:57;6.75;;;5.88;;
56457;SDS011;42360;42.918;12.366;2023-08-20T06:14:23;8.55;;;5.88;;
56457;SDS011;42360;42.918;12.366;2023-08-20T06:16:49;7.88;;;6.47;;
56457;SDS011;42360;42.918;12.366;2023-08-20T06:19:14;7.47;;;6.68;;
56457;SDS011;42360;42.918;12.366;2023-08-20T06:21:39;7.50;;;6.72;;
56457;SDS011;42360;42.918;12.366;2023-08-20T06:24:05;8.35;;;6.70;;
56457;SDS011;42360;42.918;12.366;2023-08-20T06:26:31;8.43;;;7.63;;
56457;SDS011;42360;42.918;12.366;2023-08-20T06:28:56;7.93;;;7.22;;
56457;SDS011;42360;42.918;12.366;2023-08-20T06:31:21;8.35;;;7.00;;
56457;SDS011;42360;42.918;12.366;2023-08-20T06:33:48;7.93;;;7.13;;
56457;SDS011;42360;42.918;12.366;2023-08-20T06:36:13;9.57;;;7.38;;
56457;SDS011;42360;42.918;12.366;2023-08-20T06:38:39;10.15;;;8.15;;
56457;SDS011;42360;42.918;12.366;2023-08-20T06:41:04;8.25;;;6.90;;
56457;SDS011;42360;42.918;12.366;2023-08-20T06:43:30;10.15;;;7.28;;
56457;SDS011;42360;42.918;12.366;2023-08-20T06:45:55;8.18;;;7.38;;
56457;SDS011;42360;42.918;12.366;2023-08-20T06:48:21;8.88;;;7.97;;
56457;SDS011;42360;42.918;12.366;2023-08-20T06:50:48;8.60;;;7.22;;
56457;SDS011;42360;42.918;12.366;2023-08-20T06:53:13;7.95;;;7.15;;
56457;SDS011;42360;42.918;12.366;2023-08-20T06:55:39;8.23;;;7.32;;
56457;SDS011;42360;42.918;12.366;2023-08-20T06:58:04;8.43;;;7.30;;
56457;SDS011;42360;42.918;12.366;2023-08-20T07:00:30;9.45;;;7.65;;
56457;SDS011;42360;42.918;12.366;2023-08-20T07:02:55;8.68;;;7.72;;
56457;SDS011;42360;42.918;12.366;2023-08-20T07:05:21;9.30;;;7.82;;
56457;SDS011;42360;42.918;12.366;2023-08-20T07:07:46;8.35;;;7.50;;
56457;SDS011;42360;42.918;12.366;2023-08-20T07:10:12;8.32;;;7.50;;
56457;SDS011;42360;42.918;12.366;2023-08-20T07:12:37;8.77;;;7.85;;
56457;SDS011;42360;42.918;12.366;2023-08-20T07:15:03;9.27;;;7.93;;
56457;SDS011;42360;42.918;12.366;2023-08-20T07:17:30;8.77;;;7.82;;
56457;SDS011;42360;42.918;12.366;2023-08-20T07:19:55;8.38;;;7.57;;
56457;SDS011;42360;42.918;12.366;2023-08-20T07:22:21;9.23;;;8.25;;
56457;SDS011;42360;42.918;12.366;2023-08-20T07:24:46;8.85;;;7.95;;
56457;SDS011;42360;42.918;12.366;2023-08-20T07:27:11;9.02;;;8.15;;
56457;SDS011;42360;42.918;12.366;2023-08-20T07:29:37;10.23;;;8.20;;
56457;SDS011;42360;42.918;12.366;2023-08-20T07:32:03;9.48;;;8.57;;
56457;SDS011;42360;42.918;12.366;2023-08-20T07:34:29;12.38;;;9.60;;
56457;SDS011;42360;42.918;12.366;2023-08-20T07:36:59;9.77;;;8.80;;
56457;SDS011;42360;42.918;12.366;2023-08-20T07:39:25;9.23;;;8.32;;
56457;SDS011;42360;42.918;12.366;2023-08-20T07:41:50;10.13;;;9.05;;
56457;SDS011;42360;42.918;12.366;2023-08-20T07:44:16;10.05;;;9.05;;
56457;SDS011;42360;42.918;12.366;2023-08-20T07:46:41;10.40;;;8.77;;
56457;SDS011;42360;42.918;12.366;2023-08-20T07:49:07;10.10;;;8.52;;
56457;SDS011;42360;42.918;12.366;2023-08-20T07:51:34;9.77;;;8.73;;
56457;SDS011;42360;42.918;12.366;2023-08-20T07:53:59;9.52;;;8.63;;
56457;SDS011;42360;42.918;12.366;2023-08-20T07:56:25;9.52;;;8.52;;
56457;SDS011;42360;42.918;12.366;2023-08-20T07:58:51;9.43;;;8.43;;
56457;SDS011;42360;42.918;12.366;2023-08-20T08:01:17;13.02;;;9.82;;
56457;SDS011;42360;42.918;12.366;2023-08-20T08:03:42;9.20;;;8.30;;
56457;SDS011;42360;42.918;12.366;2023-08-20T08:06:08;10.00;;;9.00;;
56457;SDS011;42360;42.918;12.366;2023-08-20T08:08:33;9.82;;;8.80;;
56457;SDS011;42360;42.918;12.366;2023-08-20T08:10:59;12.63;;;9.15;;
56457;SDS011;42360;42.918;12.366;2023-08-20T08:13:25;9.05;;;8.13;;
56457;SDS011;42360;42.918;12.366;2023-08-20T08:15:51;9.68;;;7.97;;
56457;SDS011;42360;42.918;12.366;2023-08-20T08:18:18;9.18;;;8.30;;
56457;SDS011;42360;42.918;12.366;2023-08-20T08:20:44;10.90;;;8.32;;
56457;SDS011;42360;42.918;12.366;2023-08-20T08:23:09;9.75;;;8.70;;
56457;SDS011;42360;42.918;12.366;2023-08-20T08:25:35;9.57;;;8.68;;
56457;SDS011;42360;42.918;12.366;2023-08-20T08:28:00;9.15;;;8.18;;
56457;SDS011;42360;42.918;12.366;2023-08-20T08:30:26;9.40;;;8.50;;
56457;SDS011;42360;42.918;12.366;2023-08-20T08:32:52;10.35;;;8.95;;
56457;SDS011;42360;42.918;12.366;2023-08-20T08:35:18;8.82;;;8.05;;
56457;SDS011;42360;42.918;12.366;2023-08-20T08:37:44;8.90;;;8.15;;
56457;SDS011;42360;42.918;12.366;2023-08-20T08:40:10;9.40;;;8.50;;
56457;SDS011;42360;42.918;12.366;2023-08-20T08:42:35;9.20;;;8.32;;
56457;SDS011;42360;42.918;12.366;2023-08-20T08:45:02;9.68;;;8.48;;
56457;SDS011;42360;42.918;12.366;2023-08-20T08:47:28;9.60;;;8.15;;
56457;SDS011;42360;42.918;12.366;2023-08-20T08:49:55;8.82;;;8.02;;
56457;SDS011;42360;42.918;12.366;2023-08-20T08:52:24;9.30;;;8.38;;
56457;SDS011;42360;42.918;12.366;2023-08-20T08:54:50;8.85;;;8.05;;
56457;SDS011;42360;42.918;12.366;2023-08-20T08:57:16;10.05;;;8.43;;
56457;SDS011;42360;42.918;12.366;2023-08-20T08:59:42;8.75;;;7.85;;
56457;SDS011;42360;42.918;12.366;2023-08-20T09:02:11;8.63;;;7.82;;
56457;SDS011;42360;42.918;12.366;2023-08-20T09:04:39;9.37;;;8.27;;
56457;SDS011;42360;42.918;12.366;2023-08-20T09:07:05;8.80;;;7.82;;
56457;SDS011;42360;42.918;12.366;2023-08-20T09:09:36;9.32;;;8.32;;
56457;SDS011;42360;42.918;12.366;2023-08-20T09:12:12;8.95;;;8.15;;
56457;SDS011;42360;42.918;12.366;2023-08-20T09:14:47;8.25;;;7.47;;
56457;SDS011;42360;42.918;12.366;2023-08-20T09:19:39;9.40;;;8.50;;
56457;SDS011;42360;42.918;12.366;2023-08-20T09:22:07;10.48;;;8.30;;
56457;SDS011;42360;42.918;12.366;2023-08-20T09:24:40;9.30;;;8.50;;
56457;SDS011;42360;42.918;12.366;2023-08-20T09:27:09;8.75;;;7.95;;
56457;SDS011;42360;42.918;12.366;2023-08-20T09:29:45;8.52;;;7.72;;
56457;SDS011;42360;42.918;12.366;2023-08-20T09:32:13;9.15;;;8.25;;
56457;SDS011;42360;42.918;12.366;2023-08-20T09:34:40;8.82;;;7.88;;
56457;SDS011;42360;42.918;12.366;2023-08-20T09:37:12;9.02;;;8.27;;
56457;SDS011;42360;42.918;12.366;2023-08-20T09:39:39;8.65;;;7.75;;
56457;SDS011;42360;42.918;12.366;2023-08-20T09:42:05;8.40;;;7.60;;
56457;SDS011;42360;42.918;12.366;2023-08-20T09:44:42;8.80;;;7.88;;
56457;SDS011;42360;42.918;12.366;2023-08-20T09:47:09;8.43;;;7.63;;
56457;SDS011;42360;42.918;12.366;2023-08-20T09:49:37;8.32;;;7.50;;
56457;SDS011;42360;42.918;12.366;2023-08-20T09:52:04;8.52;;;7.75;;
56457;SDS011;42360;42.918;12.366;2023-08-20T09:57:12;8.98;;;8.18;;
56457;SDS011;42360;42.918;12.366;2023-08-20T09:59:43;8.70;;;7.90;;
56457;SDS011;42360;42.918;12.366;2023-08-20T10:02:10;8.65;;;7.85;;
56457;SDS011;42360;42.918;12.366;2023-08-20T10:04:38;8.32;;;7.50;;
56457;SDS011;42360;42.918;12.366;2023-08-20T10:07:03;8.48;;;7.68;;
56457;SDS011;42360;42.918;12.366;2023-08-20T10:09:29;8.40;;;7.50;;
56457;SDS011;42360;42.918;12.366;2023-08-20T10:11:55;9.48;;;7.95;;
56457;SDS011;42360;42.918;12.366;2023-08-20T10:14:20;9.27;;;8.38;;
56457;SDS011;42360;42.918;12.366;2023-08-20T10:16:45;8.15;;;7.40;;
56457;SDS011;42360;42.918;12.366;2023-08-20T10:19:11;9.50;;;8.20;;
56457;SDS011;42360;42.918;12.366;2023-08-20T10:21:42;8.40;;;7.60;;
56457;SDS011;42360;42.918;12.366;2023-08-20T10:24:09;9.05;;;8.25;;
56457;SDS011;42360;42.918;12.366;2023-08-20T10:26:35;8.50;;;7.80;;
56457;SDS011;42360;42.918;12.366;2023-08-20T10:32:06;8.70;;;7.80;;
56457;SDS011;42360;42.918;12.366;2023-08-20T10:34:35;8.35;;;7.55;;
56457;SDS011;42360;42.918;12.366;2023-08-20T10:37:08;7.80;;;7.03;;
56457;SDS011;42360;42.918;12.366;2023-08-20T10:39:34;7.95;;;7.25;;
56457;SDS011;42360;42.918;12.366;2023-08-20T10:42:09;8.68;;;7.50;;
56457;SDS011;42360;42.918;12.366;2023-08-20T10:47:47;7.93;;;7.22;;
56457;SDS011;42360;42.918;12.366;2023-08-20T10:50:17;8.27;;;7.47;;
56457;SDS011;42360;42.918;12.366;2023-08-20T10:52:50;7.47;;;6.88;;
56457;SDS011;42360;42.918;12.366;2023-08-20T10:55:23;7.22;;;6.63;;
56457;SDS011;42360;42.918;12.366;2023-08-20T10:57:58;7.07;;;6.40;;
56457;SDS011;42360;42.918;12.366;2023-08-20T11:00:27;7.20;;;6.60;;
56457;SDS011;42360;42.918;12.366;2023-08-20T11:02:53;8.68;;;6.95;;
56457;SDS011;42360;42.918;12.366;2023-08-20T11:05:19;7.82;;;6.95;;
56457;SDS011;42360;42.918;12.366;2023-08-20T11:07:48;15.43;;;6.63;;
56457;SDS011;42360;42.918;12.366;2023-08-20T11:10:14;9.25;;;6.32;;
56457;SDS011;42360;42.918;12.366;2023-08-20T11:12:41;7.38;;;6.68;;
56457;SDS011;42360;42.918;12.366;2023-08-20T11:17:54;7.15;;;6.45;;
56457;SDS011;42360;42.918;12.366;2023-08-20T11:20:20;7.47;;;6.82;;
56457;SDS011;42360;42.918;12.366;2023-08-20T11:22:45;6.72;;;5.97;;
56457;SDS011;42360;42.918;12.366;2023-08-20T11:25:11;8.55;;;6.55;;
56457;SDS011;42360;42.918;12.366;2023-08-20T11:27:43;7.50;;;6.82;;
56457;SDS011;42360;42.918;12.366;2023-08-20T11:30:09;9.40;;;6.28;;
56457;SDS011;42360;42.918;12.366;2023-08-20T11:32:38;6.72;;;6.13;;
56457;SDS011;42360;42.918;12.366;2023-08-20T11:35:05;8.77;;;6.88;;
56457;SDS011;42360;42.918;12.366;2023-08-20T11:37:32;8.02;;;7.03;;
56457;SDS011;42360;42.918;12.366;2023-08-20T11:39:58;7.50;;;6.47;;
56457;SDS011;42360;42.918;12.366;2023-08-20T11:42:23;7.85;;;6.90;;
56457;SDS011;42360;42.918;12.366;2023-08-20T11:44:49;7.47;;;6.78;;
56457;SDS011;42360;42.918;12.366;2023-08-20T11:47:15;7.97;;;7.22;;
56457;SDS011;42360;42.918;12.366;2023-08-20T11:49:41;9.88;;;7.82;;
56457;SDS011;42360;42.918;12.366;2023-08-20T11:52:06;7.63;;;6.93;;
56457;SDS011;42360;42.918;12.366;2023-08-20T11:54:32;7.03;;;6.32;;
56457;SDS011;42360;42.918;12.366;2023-08-20T11:57:02;8.00;;;7.03;;
56457;SDS011;42360;42.918;12.366;2023-08-20T11:59:28;7.10;;;6.50;;
56457;SDS011;42360;42.918;12.366;2023-08-20T12:01:57;7.28;;;6.63;;
56457;SDS011;42360;42.918;12.366;2023-08-20T12:04:26;8.75;;;7.07;;
56457;SDS011;42360;42.918;12.366;2023-08-20T12:07:02;8.80;;;6.72;;
56457;SDS011;42360;42.918;12.366;2023-08-20T12:09:34;7.55;;;6.95;;
56457;SDS011;42360;42.918;12.366;2023-08-20T12:12:00;8.10;;;7.32;;
56457;SDS011;42360;42.918;12.366;2023-08-20T12:14:26;8.05;;;7.40;;
56457;SDS011;42360;42.918;12.366;2023-08-20T12:16:55;7.18;;;6.53;;
56457;SDS011;42360;42.918;12.366;2023-08-20T12:19:21;8.18;;;6.90;;
56457;SDS011;42360;42.918;12.366;2023-08-20T12:21:47;6.70;;;6.07;;
56457;SDS011;42360;42.918;12.366;2023-08-20T12:24:13;7.38;;;6.68;;
56457;SDS011;42360;42.918;12.366;2023-08-20T12:26:39;7.93;;;7.22;;
56457;SDS011;42360;42.918;12.366;2023-08-20T12:29:05;7.70;;;6.93;;
56457;SDS011;42360;42.918;12.366;2023-08-20T12:31:31;7.03;;;6.45;;
56457;SDS011;42360;42.918;12.366;2023-08-20T12:33:57;7.13;;;6.43;;
56457;SDS011;42360;42.918;12.366;2023-08-20T12:36:23;7.40;;;6.72;;
56457;SDS011;42360;42.918;12.366;2023-08-20T12:38:49;7.75;;;6.60;;
56457;SDS011;42360;42.918;12.366;2023-08-20T12:41:14;9.23;;;7.32;;
56457;SDS011;42360;42.918;12.366;2023-08-20T12:43:40;7.20;;;6.60;;
56457;SDS011;42360;42.918;12.366;2023-08-20T12:46:06;8.50;;;6.57;;
56457;SDS011;42360;42.918;12.366;2023-08-20T12:48:31;7.53;;;6.82;;
56457;SDS011;42360;42.918;12.366;2023-08-20T12:50:57;8.65;;;6.68;;
56457;SDS011;42360;42.918;12.366;2023-08-20T12:53:23;8.05;;;6.65;;
56457;SDS011;42360;42.918;12.366;2023-08-20T12:55:48;6.38;;;5.78;;
56457;SDS011;42360;42.918;12.366;2023-08-20T12:58:14;5.97;;;5.47;;
56457;SDS011;42360;42.918;12.366;2023-08-20T13:00:39;5.95;;;5.45;;
56457;SDS011;42360;42.918;12.366;2023-08-20T13:03:05;6.15;;;5.55;;
56457;SDS011;42360;42.918;12.366;2023-08-20T13:05:31;6.53;;;5.75;;
56457;SDS011;42360;42.918;12.366;2023-08-20T13:07:57;6.40;;;5.75;;
56457;SDS011;42360;42.918;12.366;2023-08-20T13:10:23;7.00;;;6.30;;
56457;SDS011;42360;42.918;12.366;2023-08-20T13:12:50;6.50;;;6.00;;
56457;SDS011;42360;42.918;12.366;2023-08-20T13:15:18;8.40;;;6.53;;
56457;SDS011;42360;42.918;12.366;2023-08-20T13:17:45;7.00;;;6.30;;
56457;SDS011;42360;42.918;12.366;2023-08-20T13:20:12;6.60;;;6.00;;
56457;SDS011;42360;42.918;12.366;2023-08-20T13:22:37;7.05;;;6.45;;
56457;SDS011;42360;42.918;12.366;2023-08-20T13:25:03;7.05;;;6.15;;
56457;SDS011;42360;42.918;12.366;2023-08-20T13:27:29;7.18;;;6.53;;
56457;SDS011;42360;42.918;12.366;2023-08-20T13:29:55;7.25;;;6.55;;
56457;SDS011;42360;42.918;12.366;2023-08-20T13:32:21;7.57;;;6.55;;
56457;SDS011;42360;42.918;12.366;2023-08-20T13:34:46;7.20;;;6.25;;
56457;SDS011;42360;42.918;12.366;2023-08-20T13:37:12;7.28;;;6.63;;
56457;SDS011;42360;42.918;12.366;2023-08-20T13:39:37;6.63;;;6.03;;
56457;SDS011;42360;42.918;12.366;2023-08-20T13:42:03;7.00;;;6.47;;
56457;SDS011;42360;42.918;12.366;2023-08-20T13:44:28;7.53;;;6.78;;
56457;SDS011;42360;42.918;12.366;2023-08-20T13:46:54;7.70;;;6.68;;
56457;SDS011;42360;42.918;12.366;2023-08-20T13:49:20;7.20;;;6.50;;
56457;SDS011;42360;42.918;12.366;2023-08-20T13:51:45;6.38;;;5.93;;
56457;SDS011;42360;42.918;12.366;2023-08-20T13:54:11;8.40;;;6.55;;
56457;SDS011;42360;42.918;12.366;2023-08-20T13:56:36;7.57;;;6.82;;
56457;SDS011;42360;42.918;12.366;2023-08-20T13:59:02;8.07;;;6.60;;
56457;SDS011;42360;42.918;12.366;2023-08-20T14:01:27;7.57;;;6.88;;
56457;SDS011;42360;42.918;12.366;2023-08-20T14:03:53;7.90;;;7.00;;
56457;SDS011;42360;42.918;12.366;2023-08-20T14:06:19;7.43;;;6.72;;
56457;SDS011;42360;42.918;12.366;2023-08-20T14:08:44;7.68;;;6.97;;
56457;SDS011;42360;42.918;12.366;2023-08-20T14:11:10;7.38;;;6.78;;
56457;SDS011;42360;42.918;12.366;2023-08-20T14:13:35;7.93;;;6.90;;
56457;SDS011;42360;42.918;12.366;2023-08-20T14:16:01;7.63;;;6.88;;
56457;SDS011;42360;42.918;12.366;2023-08-20T14:18:27;7.63;;;6.97;;
56457;SDS011;42360;42.918;12.366;2023-08-20T14:20:53;8.00;;;7.20;;
56457;SDS011;42360;42.918;12.366;2023-08-20T14:23:18;8.05;;;7.32;;
56457;SDS011;42360;42.918;12.366;2023-08-20T14:25:44;7.03;;;6.50;;
56457;SDS011;42360;42.918;12.366;2023-08-20T14:28:09;7.93;;;7.32;;
56457;SDS011;42360;42.918;12.366;2023-08-20T14:30:38;7.78;;;7.13;;
56457;SDS011;42360;42.918;12.366;2023-08-20T14:33:04;7.78;;;7.07;;
56457;SDS011;42360;42.918;12.366;2023-08-20T14:35:30;7.53;;;6.78;;
56457;SDS011;42360;42.918;12.366;2023-08-20T14:37:58;8.57;;;7.78;;
56457;SDS011;42360;42.918;12.366;2023-08-20T14:40:24;8.10;;;7.50;;
56457;SDS011;42360;42.918;12.366;2023-08-20T14:42:50;7.95;;;7.15;;
56457;SDS011;42360;42.918;12.366;2023-08-20T14:45:15;8.15;;;7.45;;
56457;SDS011;42360;42.918;12.366;2023-08-20T14:47:41;7.60;;;6.88;;
56457;SDS011;42360;42.918;12.366;2023-08-20T14:50:07;8.25;;;7.50;;
56457;SDS011;42360;42.918;12.366;2023-08-20T14:52:33;8.35;;;7.65;;